Time;durP1;ratioP1;P1;durP2;ratioP2;P2;SDS_P1;SDS_P2;PMS_P1;PMS_P2;Temp;Humidity;BMP_temperature;BMP_pressure;BME280_temperature;BME280_humidity;BME280_pressure;Samples;Min_cycle;Max_cycle;Signal;HPM_P1;HPM_P2
2021/09/18 00:03:32;;;;;;;5.53;5.12;;;;;;;19.85;62.42;99421.62;2191379;89;25883;-93
2021/09/18 00:07:19;;;;;;;7.92;4.37;;;;;;;19.85;62.47;99417.65;2160912;89;25754;-94
2021/09/18 00:11:14;;;;;;;5.78;5.28;;;;;;;19.83;62.49;99415.03;2132171;86;25854;-92
2021/09/18 00:14:42;;;;;;;7.28;4.55;;;;;;;19.81;62.53;99412.91;2142958;89;25666;-92
2021/09/18 00:18:35;;;;;;;5.42;5.03;;;;;;;19.78;62.51;99416.96;2149370;89;25538;-93
2021/09/18 00:21:56;;;;;;;4.95;4.55;;;;;;;19.78;62.59;99413.86;2117259;89;27087;-93
2021/09/18 00:25:38;;;;;;;5.35;4.95;;;;;;;19.81;62.57;99416.41;2140870;89;26133;-90
2021/09/18 00:29:47;;;;;;;;;;;;;;;19.81;62.52;99416.41;2142130;89;25661;-95
2021/09/18 01:13:20;;;;;;;5.30;4.90;;;;;;;19.70;62.99;99406.58;2229422;86;34893;-92
2021/09/18 01:16:56;;;;;;;5.20;4.70;;;;;;;19.66;62.98;99406.27;2281377;82;26260;-93
2021/09/18 01:21:08;;;;;;;4.72;4.42;;;;;;;19.63;63.01;99402.39;2311717;82;26105;-93
2021/09/18 01:24:50;;;;;;;7.87;4.00;;;;;;;19.66;63.09;99410.23;2305312;81;25517;-94
2021/09/18 01:28:48;;;;;;;5.15;4.28;;;;;;;19.70;63.04;99406.58;2306446;81;25617;-94
2021/09/18 01:32:39;;;;;;;3.90;3.55;;;;;;;19.70;63.07;99397.79;2304099;82;26076;-93
2021/09/18 01:36:28;;;;;;;4.62;4.15;;;;;;;19.66;63.10;99394.38;2305541;81;26039;-90
2021/09/18 01:40:09;;;;;;;9.23;4.25;;;;;;;19.68;63.25;99391.23;2390831;79;26095;-92
2021/09/18 01:52:47;;;;;;;4.37;4.08;;;;;;;19.63;63.39;99385.20;2364149;80;25700;-92
2021/09/18 02:19:32;;;;;;;6.15;5.62;;;;;;;19.53;63.62;99363.88;2282753;81;26127;-90
2021/09/18 02:23:14;;;;;;;6.33;5.87;;;;;;;19.53;63.64;99366.52;2312221;83;25914;-91
2021/09/18 02:36:21;;;;;;;6.25;5.85;;;;;;;19.54;63.74;99360.31;2291021;81;27086;31
2021/09/18 02:40:00;;;;;;;6.45;5.90;;;;;;;19.56;63.75;99358.51;2281633;83;26130;-90
2021/09/18 02:43:31;;;;;;;7.53;6.93;;;;;;;19.56;63.68;99363.80;2211614;86;25805;-90
2021/09/18 02:47:13;;;;;;;6.67;6.03;;;;;;;19.55;63.64;99364.25;2182664;88;26029;-90
2021/09/18 02:50:34;;;;;;;7.22;6.62;;;;;;;19.54;63.66;99359.00;2210597;88;25941;-91
2021/09/18 02:58:37;;;;;;;7.40;6.72;;;;;;;19.51;63.85;99360.44;2188930;86;26211;-90
2021/09/18 03:02:57;;;;;;;7.30;6.50;;;;;;;19.51;63.86;99353.37;2270652;84;26289;-90
2021/09/18 03:11:23;;;;;;;7.58;7.03;;;;;;;19.54;63.82;99357.25;2229930;85;26365;-91
2021/09/18 03:14:59;;;;;;;7.35;6.85;;;;;;;19.48;63.83;99354.77;2216632;86;26212;-90
2021/09/18 03:18:45;;;;;;;10.72;8.98;;;;;;;19.47;64.01;99350.41;2211102;86;26342;-91
2021/09/18 03:22:21;;;;;;;8.80;8.10;;;;;;;19.50;63.96;99354.25;2233235;85;26107;-89
2021/09/18 03:40:02;;;;;;;11.05;7.83;;;;;;;19.51;63.95;99349.86;2338301;80;25987;-90
2021/09/18 03:48:22;;;;;;;11.60;9.48;;;;;;;19.50;63.98;99347.64;2330835;81;25828;-92
2021/09/18 04:05:52;;;;;;;3.95;3.60;;;;;;;19.45;63.80;99352.67;2290104;82;25651;-89
2021/09/18 04:13:53;;;;;;;3.87;3.50;;;;;;;19.35;63.20;99362.19;2368816;81;26060;-90
2021/09/18 04:17:44;;;;;;;5.03;3.12;;;;;;;19.25;63.04;99364.67;2366412;82;25636;-90
2021/09/18 04:21:52;;;;;;;4.40;3.37;;;;;;;19.18;62.96;99359.16;2347052;81;25711;-91
2021/09/18 04:25:34;;;;;;;3.67;3.40;;;;;;;19.16;62.93;99362.28;2362319;81;25654;-92
2021/09/18 04:37:57;;;;;;;4.40;4.00;;;;;;;18.98;62.79;99369.40;2347139;78;26191;-91
2021/09/18 04:41:21;;;;;;;4.12;3.72;;;;;;;18.92;62.96;99373.06;2361714;81;25670;-91
2021/09/18 04:45:37;;;;;;;4.70;4.28;;;;;;;18.89;63.06;99366.54;2307133;82;25713;-92
2021/09/18 04:49:19;;;;;;;6.45;4.87;;;;;;;18.86;63.03;99367.48;2178153;88;26315;-90
2021/09/18 04:52:49;;;;;;;6.40;5.15;;;;;;;18.83;63.07;99370.23;2191260;83;25672;-90
2021/09/18 04:56:11;;;;;;;5.53;5.10;;;;;;;18.80;63.02;99378.69;2187132;87;26158;-91
2021/09/18 05:00:31;;;;;;;5.97;5.37;;;;;;;18.79;63.05;99386.17;2187478;87;26143;-90
2021/09/18 05:04:11;;;;;;;5.65;5.05;;;;;;;18.75;62.93;99377.46;2252803;82;25748;-89
2021/09/18 05:08:01;;;;;;;6.15;5.60;;;;;;;18.77;62.90;99384.05;2320808;83;25828;-90
2021/09/18 05:11:40;;;;;;;5.72;5.22;;;;;;;18.78;62.80;99384.45;2322229;79;26094;-90
2021/09/18 05:19:57;;;;;;;5.35;3.58;;;;;;;18.74;62.70;99390.72;2232079;86;26210;-89
2021/09/18 05:23:53;;;;;;;7.33;4.05;;;;;;;18.72;62.60;99397.80;2237070;87;26192;-89
2021/09/18 05:32:41;;;;;;;3.72;2.92;;;;;;;18.71;62.39;99398.23;2139159;89;25975;-89
2021/09/18 05:36:05;;;;;;;4.08;3.05;;;;;;;18.64;62.38;99409.84;2140217;90;26118;-89
2021/09/18 05:39:51;;;;;;;3.55;3.25;;;;;;;18.63;62.39;99412.08;2143930;89;25773;-90
2021/09/18 05:43:58;;;;;;;4.25;3.42;;;;;;;18.54;62.32;99407.02;2230234;87;26382;-88
2021/09/18 05:47:44;;;;;;;3.55;3.10;;;;;;;18.53;62.34;99418.49;2234757;87;25759;-88
2021/09/18 05:51:51;;;;;;;5.40;2.85;;;;;;;18.46;62.37;99423.47;2194752;89;26059;-92
2021/09/18 05:55:19;;;;;;;4.53;3.90;;;;;;;18.41;62.46;99427.09;2202055;89;25856;-87
2021/09/18 05:59:54;;;;;;;3.50;3.20;;;;;;;18.36;62.45;99425.48;2182389;88;25694;-88
2021/09/18 06:04:10;;;;;;;3.37;3.15;;;;;;;18.36;62.37;99425.48;2172360;88;25988;-91
2021/09/18 06:07:31;;;;;;;5.47;3.30;;;;;;;18.34;62.36;99417.59;2212775;85;25887;-90
2021/09/18 06:11:41;;;;;;;3.25;2.95;;;;;;;18.37;62.27;99417.52;2185873;87;31455;-90
2021/09/18 06:15:25;;;;;;;;;;;;;;;;;;;;;
2021/09/18 06:27:25;;;;;;;3.25;2.95;;;;;;;18.34;62.00;99433.88;2202588;86;25992;-92
2021/09/18 06:31:05;;;;;;;4.95;3.27;;;;;;;18.28;61.93;99441.47;2233975;87;25834;-91
2021/09/18 06:34:59;;;;;;;15.83;3.15;;;;;;;18.23;61.64;99446.46;2223417;86;25764;-91
2021/09/18 06:38:26;;;;;;;3.50;3.20;;;;;;;18.13;61.32;99446.66;2228184;85;25695;-90
2021/09/18 06:42:11;;;;;;;3.98;3.05;;;;;;;18.05;61.19;99445.08;2215238;87;25796;-91
2021/09/18 06:45:52;;;;;;;3.42;3.12;;;;;;;18.02;61.11;99455.69;2241499;86;25874;-89
2021/09/18 06:50:08;;;;;;;;;;;;;;;;;;;;;
2021/09/18 06:54:01;;;;;;;2.80;2.60;;;;;;;17.96;60.98;99449.25;2254291;80;25723;-91
2021/09/18 06:58:13;;;;;;;3.58;3.27;;;;;;;17.96;60.91;99465.08;2260922;86;25658;-93
2021/09/18 07:10:57;;;;;;;2.62;2.30;;;;;;;17.79;60.67;99458.84;2307758;82;25770;-91
2021/09/18 07:14:57;;;;;;;;;;;;;;;17.80;60.69;99469.80;2284410;83;26187;-85
2021/09/18 07:27:42;;;;;;;4.70;2.80;;;;;;;17.89;60.76;99477.52;2323125;83;26909;-88
2021/09/18 07:31:24;;;;;;;3.90;3.37;;;;;;;17.88;60.70;99470.03;2328398;82;25691;-91
2021/09/18 07:58:23;;;;;;;;;;;;;;;;;;;;;
2021/09/18 08:06:55;;;;;;;4.12;1.75;;;;;;;19.68;58.61;99499.66;2291254;80;26283;-86
2021/09/18 08:14:47;;;;;;;3.52;1.22;;;;;;;19.34;57.55;99500.98;2297793;84;25865;-83
2021/09/18 08:18:29;;;;;;;1.87;1.22;;;;;;;19.20;57.21;99504.42;2293187;84;25627;-84
2021/09/18 08:22:08;;;;;;;1.57;1.15;;;;;;;19.06;56.97;99512.70;2297816;85;25717;-82
2021/09/18 08:26:05;;;;;;;1.10;1.00;;;;;;;18.92;56.95;99514.81;2265168;84;26062;-89
2021/09/18 08:29:32;;;;;;;1.55;0.90;;;;;;;18.83;56.98;99514.14;2289652;85;25707;-82
2021/09/18 08:33:04;;;;;;;1.27;0.82;;;;;;;18.79;57.07;99517.73;2265728;84;25989;-83
2021/09/18 08:49:21;;;;;;;2.62;1.67;;;;;;;18.69;56.89;99518.83;2172942;87;26102;-82
2021/09/18 08:52:43;;;;;;;1.65;0.80;;;;;;;18.58;56.81;99515.58;2183615;87;26035;-85
2021/09/18 08:56:21;;;;;;;2.92;0.70;;;;;;;18.55;56.88;99523.56;2198199;88;26216;-82
2021/09/18 08:59:57;;;;;;;1.20;1.00;;;;;;;18.53;56.90;99530.21;2265991;85;26079;-83
2021/09/18 09:03:42;;;;;;;1.57;1.47;;;;;;;18.51;56.85;99528.05;2241828;86;26342;-82
2021/09/18 09:07:25;;;;;;;3.25;1.20;;;;;;;18.42;56.88;99536.16;2218394;86;25958;-82
2021/09/18 09:11:20;;;;;;;4.60;1.10;;;;;;;18.41;56.92;99536.61;2202886;88;26179;-82
2021/09/18 09:14:56;;;;;;;1.90;1.80;;;;;;;18.37;56.87;99538.91;2181577;87;25997;-82
2021/09/18 09:18:39;;;;;;;2.35;1.50;;;;;;;18.32;56.75;99542.08;2240331;84;26072;-81
2021/09/18 09:22:05;;;;;;;1.50;1.40;;;;;;;18.26;56.93;99547.52;2288790;83;25612;-80
2021/09/18 09:26:03;;;;;;;3.55;1.77;;;;;;;18.23;56.84;99549.34;2283919;83;25731;-82
2021/09/18 09:29:51;;;;;;;2.47;1.77;;;;;;;18.14;56.56;99547.76;2306078;83;26167;-83
2021/09/18 09:33:12;;;;;;;1.90;1.80;;;;;;;18.03;56.78;99557.66;2318667;83;26015;-83
2021/09/18 09:36:57;;;;;;;2.02;1.82;;;;;;;18.01;56.99;99552.41;2338500;83;25717;-83
2021/09/18 09:40:45;;;;;;;1.87;1.70;;;;;;;18.00;57.04;99550.68;2291788;83;25775;-84
2021/09/18 09:44:21;;;;;;;1.87;1.77;;;;;;;18.03;57.28;99553.25;2310295;83;25563;-84
2021/09/18 09:48:27;;;;;;;3.55;2.22;;;;;;;18.10;57.18;99554.87;2303704;83;25911;-84
2021/09/18 09:51:51;;;;;;;4.05;2.05;;;;;;;18.14;57.10;99553.89;2300795;82;25868;-84
2021/09/18 09:55:27;;;;;;;2.25;1.65;;;;;;;18.20;56.88;99550.73;2300950;83;26119;-84
2021/09/18 09:58:59;;;;;;;1.80;1.70;;;;;;;18.27;56.76;99557.16;2257224;83;25846;-82
2021/09/18 10:02:23;;;;;;;3.52;1.92;;;;;;;18.32;56.65;99553.95;2292622;83;25709;-83
2021/09/18 10:05:51;;;;;;;3.17;1.55;;;;;;;18.30;56.77;99558.41;2306938;83;25934;-82
2021/09/18 10:09:23;;;;;;;1.95;1.50;;;;;;;18.31;56.82;99560.14;2288960;83;25818;-80
2021/09/18 10:12:53;;;;;;;1.35;1.12;;;;;;;18.28;56.52;99562.84;2303975;83;25757;-80
2021/09/18 10:16:26;;;;;;;1.50;1.12;;;;;;;18.20;56.51;99565.24;2280688;85;26053;-81
2021/09/18 10:20:04;;;;;;;1.00;0.80;;;;;;;18.21;56.91;99566.52;2278071;84;25947;-83
2021/09/18 10:23:33;;;;;;;1.25;0.90;;;;;;;18.29;56.65;99574.26;2257164;85;25785;-83
2021/09/18 10:27:27;;;;;;;1.72;0.93;;;;;;;18.23;56.70;99568.68;2278471;83;25931;-84
2021/09/18 10:31:46;;;;;;;2.60;0.80;;;;;;;18.20;56.52;99572.70;2221197;86;25952;-83
2021/09/18 10:35:34;;;;;;;0.77;0.60;;;;;;;18.18;56.50;99574.48;2221170;86;26130;-83
2021/09/18 10:38:51;;;;;;;0.82;0.70;;;;;;;18.14;56.31;99580.27;2219312;87;26283;-82
2021/09/18 10:42:16;;;;;;;1.47;0.70;;;;;;;18.09;56.10;99577.30;2237596;86;25833;-84
2021/09/18 10:46:02;;;;;;;2.50;0.70;;;;;;;18.07;55.89;99574.70;2215616;86;26114;-84
2021/09/18 10:49:37;;;;;;;3.75;0.85;;;;;;;18.10;55.69;99576.42;2221955;87;26127;-83
2021/09/18 10:53:19;;;;;;;0.85;0.60;;;;;;;18.23;55.58;99583.19;2221294;88;25865;-84
2021/09/18 10:57:07;;;;;;;1.50;0.55;;;;;;;18.37;55.49;99586.41;2210405;87;25803;-84
2021/09/18 11:00:40;;;;;;;1.42;0.55;;;;;;;18.41;55.03;99584.57;2216633;85;26149;-84
2021/09/18 11:04:05;;;;;;;2.72;0.57;;;;;;;18.62;59.13;99588.52;2266490;83;25776;-92
2021/09/18 11:08:17;;;;;;;0.95;0.60;;;;;;;19.05;59.86;99595.05;2279030;84;26179;-90
2021/09/18 11:11:39;;;;;;;1.40;1.00;;;;;;;19.31;58.21;99601.03;2243626;85;25634;-85
2021/09/18 11:15:24;;;;;;;1.12;0.60;;;;;;;19.28;56.47;99601.56;2224041;86;25860;-84
2021/09/18 11:18:57;;;;;;;0.72;0.70;;;;;;;19.20;55.62;99596.44;2215034;87;25894;-86
2021/09/18 11:22:18;;;;;;;1.37;0.60;;;;;;;19.11;54.93;99595.36;2229920;86;25857;-85
2021/09/18 11:25:46;;;;;;;0.50;0.50;;;;;;;19.19;54.48;99593.39;2225439;88;26066;-86
2021/09/18 11:29:44;;;;;;;1.10;0.70;;;;;;;19.24;54.23;99595.48;2225372;86;25884;-86
2021/09/18 11:33:24;;;;;;;3.70;0.60;;;;;;;19.24;54.04;99601.23;2230681;88;25656;-88
2021/09/18 11:36:46;;;;;;;2.50;0.70;;;;;;;19.18;53.63;99604.87;2215227;87;26369;-86
2021/09/18 11:40:12;;;;;;;0.60;0.60;;;;;;;19.15;53.45;99604.94;2215167;87;26907;-86
2021/09/18 11:43:38;;;;;;;0.50;0.50;;;;;;;19.08;53.19;99603.36;2246225;85;25991;-87
2021/09/18 11:47:06;;;;;;;1.00;0.90;;;;;;;19.07;53.44;99602.95;2259611;84;25759;-86
2021/09/18 11:50:59;;;;;;;0.70;0.47;;;;;;;19.20;53.47;99610.11;2262599;86;26125;-85
2021/09/18 11:54:28;;;;;;;1.55;0.40;;;;;;;19.23;53.05;99615.32;2262734;84;25841;-84
2021/09/18 11:58:16;;;;;;;2.08;0.60;;;;;;;19.17;52.72;99611.08;2278560;84;25757;-85
2021/09/18 12:01:39;;;;;;;0.98;0.98;;;;;;;19.08;52.47;99613.47;2306210;84;26445;-85
2021/09/18 12:05:01;;;;;;;1.35;0.62;;;;;;;19.06;52.43;99617.04;2323957;82;25638;-86
2021/09/18 12:08:49;;;;;;;0.40;0.30;;;;;;;19.06;52.50;99609.11;2331212;81;25748;-87
2021/09/18 12:13:19;;;;;;;1.15;0.50;;;;;;;19.07;52.40;99614.84;2330766;81;25725;-87
2021/09/18 12:17:16;;;;;;;0.37;0.37;;;;;;;19.06;52.22;99613.08;2290888;83;26122;-92
2021/09/18 12:21:40;;;;;;;0.47;0.40;;;;;;;19.09;52.41;99615.65;2338108;82;25654;-89
2021/09/18 12:25:30;;;;;;;0.33;0.30;;;;;;;19.05;52.37;99621.92;2291793;83;25706;-85
2021/09/18 12:29:25;;;;;;;0.88;0.30;;;;;;;18.97;52.41;99624.75;2285278;82;25846;-86
2021/09/18 12:33:11;;;;;;;6.22;1.62;;;;;;;18.88;52.42;99619.66;2293252;83;25651;-86
2021/09/18 12:36:35;;;;;;;5.45;4.58;;;;;;;18.78;52.52;99622.95;2323760;81;26054;-87
2021/09/18 12:40:33;;;;;;;4.10;1.87;;;;;;;18.68;52.94;99625.80;2309757;83;26596;-90
2021/09/18 12:44:29;;;;;;;2.98;1.90;;;;;;;18.62;53.26;99628.11;2209439;85;25853;-85
2021/09/18 12:47:49;;;;;;;1.62;1.17;;;;;;;18.53;53.16;99623.05;2209610;87;26216;-91
2021/09/18 12:51:47;;;;;;;3.58;0.70;;;;;;;18.41;53.19;99632.94;2210022;87;25983;-93
2021/09/18 12:55:21;;;;;;;0.72;0.40;;;;;;;18.26;53.32;99627.98;2213182;87;26083;-86
2021/09/18 12:58:58;;;;;;;1.75;0.60;;;;;;;18.15;53.44;99636.08;2220666;87;25818;-87
2021/09/18 13:02:29;;;;;;;0.60;0.40;;;;;;;18.05;53.89;99631.02;2211799;88;25683;-87
2021/09/18 13:06:23;;;;;;;0.40;0.40;;;;;;;17.98;54.00;99635.98;2176674;88;25881;-87
2021/09/18 13:10:23;;;;;;;0.93;0.60;;;;;;;17.90;54.17;99631.73;2110791;91;25759;-84
2021/09/18 13:13:54;;;;;;;2.37;0.42;;;;;;;17.78;54.31;99633.25;2132452;90;26333;-85
2021/09/18 13:17:36;;;;;;;0.90;0.50;;;;;;;17.64;54.44;99641.38;2126314;91;25958;-86
2021/09/18 13:21:19;;;;;;;4.15;2.00;;;;;;;17.50;54.84;99633.30;2106881;88;26285;-86
2021/09/18 13:28:57;;;;;;;1.00;0.60;;;;;;;17.45;55.68;99642.15;2019165;94;25912;-85
2021/09/18 13:32:27;;;;;;;2.15;0.50;;;;;;;17.39;55.74;99633.02;2007562;94;26200;-87
2021/09/18 13:36:19;;;;;;;1.42;0.60;;;;;;;17.35;56.20;99636.61;2017363;95;26109;-92
2021/09/18 13:47:18;;;;;;;1.22;0.80;;;;;;;17.21;56.61;99640.77;2062354;92;26058;-77
2021/09/18 13:50:53;;;;;;;0.95;0.40;;;;;;;17.52;58.27;99640.73;2082047;94;31892;-74
2021/09/18 13:54:14;;;;;;;0.70;0.50;;;;;;;17.52;57.50;99636.78;2060768;93;25715;-71
2021/09/18 13:57:43;;;;;;;2.12;1.05;;;;;;;17.30;56.86;99634.93;2070813;91;26313;-76
2021/09/18 14:01:16;;;;;;;0.75;0.35;;;;;;;16.96;56.72;99628.41;2105677;90;25739;-77
2021/09/18 14:04:37;;;;;;;0.50;0.40;;;;;;;16.69;56.85;99636.20;2117443;90;25872;-78
2021/09/18 14:08:01;;;;;;;0.70;0.47;;;;;;;16.48;57.15;99628.14;2184023;88;25685;-73
2021/09/18 14:11:22;;;;;;;0.37;0.37;;;;;;;16.36;57.38;99638.81;2209740;88;26153;-78
2021/09/18 14:14:44;;;;;;;0.93;0.50;;;;;;;16.27;57.54;99629.73;2192450;88;25683;-72
2021/09/18 14:18:12;;;;;;;0.50;0.50;;;;;;;16.16;57.76;99631.59;2170565;88;26437;-78
2021/09/18 14:21:36;;;;;;;0.70;0.68;;;;;;;16.04;58.12;99626.03;2190972;88;30013;-83
2021/09/18 14:24:57;;;;;;;1.40;0.40;;;;;;;15.97;58.53;99627.86;2151249;88;25650;-78
2021/09/18 14:28:50;;;;;;;0.70;0.40;;;;;;;15.93;58.54;99631.83;2205070;86;31342;-77
2021/09/18 14:32:51;;;;;;;2.08;0.82;;;;;;;15.87;58.75;99633.23;2206357;87;26016;-77
2021/09/18 14:36:20;;;;;;;1.25;0.85;;;;;;;15.76;59.11;99633.31;2233775;87;25703;-78
2021/09/18 14:39:43;;;;;;;1.42;0.70;;;;;;;15.73;59.19;99633.37;2203885;87;25729;-77
2021/09/18 14:43:13;;;;;;;0.82;0.55;;;;;;;15.71;59.21;99641.69;2213022;87;31410;-78
2021/09/18 14:46:52;;;;;;;2.00;0.40;;;;;;;15.63;59.34;99639.11;2151393;89;25796;-79
2021/09/18 14:50:24;;;;;;;3.63;0.40;;;;;;;15.51;59.77;99649.71;2163386;89;26025;-75
2021/09/18 14:53:58;;;;;;;1.62;0.40;;;;;;;15.51;59.77;99649.71;2177304;88;26332;-71
2021/09/18 14:57:19;;;;;;;0.55;0.35;;;;;;;15.46;60.25;99652.84;2181643;90;25802;-74
2021/09/18 15:00:40;;;;;;;1.05;0.40;;;;;;;15.42;59.98;99651.09;2187840;88;31012;-71
2021/09/18 15:04:13;;;;;;;2.92;0.40;;;;;;;15.32;59.95;99648.97;2188159;88;26183;-78
2021/09/18 15:07:35;;;;;;;0.78;0.40;;;;;;;15.27;59.89;99655.58;2174480;88;26073;-74
2021/09/18 15:10:56;;;;;;;0.60;0.30;;;;;;;15.21;60.06;99652.99;2180276;89;25781;-74
2021/09/18 15:14:17;;;;;;;1.27;0.30;;;;;;;15.18;60.11;99652.14;2171760;89;31389;-73
2021/09/18 15:17:38;;;;;;;0.37;0.30;;;;;;;15.19;60.31;99657.84;2182592;89;31471;-78
2021/09/18 15:21:02;;;;;;;0.53;0.30;;;;;;;15.12;60.17;99663.58;2178638;89;25675;-73
2021/09/18 15:24:26;;;;;;;5.80;0.40;;;;;;;15.06;60.21;99669.73;2111807;91;26172;-77
2021/09/18 15:27:52;;;;;;;2.92;0.90;;;;;;;15.03;60.59;99667.56;2116636;91;25852;-78
2021/09/18 15:31:14;;;;;;;1.35;0.45;;;;;;;14.95;60.38;99669.34;2144466;91;25879;-76
2021/09/18 15:34:35;;;;;;;0.55;0.33;;;;;;;14.83;60.64;99675.09;2127873;91;25796;-79
2021/09/18 15:38:10;;;;;;;1.17;0.40;;;;;;;14.76;60.81;99679.08;2109574;92;31506;-73
2021/09/18 15:41:31;;;;;;;2.37;0.40;;;;;;;14.73;61.11;99680.41;2083906;93;25813;-78
2021/09/18 15:45:10;;;;;;;0.40;0.25;;;;;;;14.71;61.21;99679.08;2078881;93;26034;-71
2021/09/18 15:48:32;;;;;;;0.85;0.42;;;;;;;14.74;61.39;99690.02;2066709;93;33135;-72
2021/09/18 15:51:58;;;;;;;1.35;0.47;;;;;;;14.73;61.04;99685.20;2043854;93;25866;-72
2021/09/18 15:55:25;;;;;;;1.90;0.37;;;;;;;14.90;63.21;99692.13;2063089;94;25923;-72
2021/09/18 15:58:49;;;;;;;1.02;0.40;;;;;;;15.11;62.00;99693.31;2069233;93;25930;-71
2021/09/18 16:02:11;;;;;;;0.85;0.50;;;;;;;15.25;61.46;99699.79;2101323;91;44579;-78
2021/09/18 16:05:32;;;;;;;1.12;0.35;;;;;;;15.43;61.51;99703.63;2128732;91;26584;-75
2021/09/18 16:09:03;;;;;;;;;;;;;;;;;;;;;
2021/09/18 16:12:16;;;;;;;0.57;0.30;;;;;;;15.04;59.56;99702.11;2115852;91;25786;-70
2021/09/18 16:15:37;;;;;;;3.52;0.50;;;;;;;14.81;59.23;99697.84;2131812;91;32348;-78
2021/09/18 16:18:58;;;;;;;0.33;0.33;;;;;;;14.63;59.16;99711.05;2132700;91;25936;-70
2021/09/18 16:22:20;;;;;;;0.37;0.20;;;;;;;14.45;59.07;99706.70;2108985;91;26211;-80
2021/09/18 16:25:43;;;;;;;0.45;0.30;;;;;;;14.01;59.25;99688.46;2117508;91;25376;-73
2021/09/18 16:29:04;;;;;;;0.88;0.40;;;;;;;14.01;59.25;99688.46;2064125;93;25779;-77
2021/09/18 16:32:26;;;;;;;1.17;0.33;;;;;;;13.98;59.31;99715.54;2042713;94;25699;-79
2021/09/18 16:35:47;;;;;;;0.98;0.42;;;;;;;13.86;59.52;99720.77;2108997;92;25988;-70
2021/09/18 16:39:30;;;;;;;0.40;0.30;;;;;;;13.73;59.63;99713.34;2191069;87;31341;-79
2021/09/18 16:42:53;;;;;;;0.68;0.53;;;;;;;13.43;59.84;99694.56;2202520;87;25701;-79
2021/09/18 16:46:14;;;;;;;0.62;0.30;;;;;;;13.43;59.84;99694.56;2191442;87;25641;-78
2021/09/18 16:49:49;;;;;;;0.70;0.50;;;;;;;13.52;59.68;99720.77;2205916;88;26221;-70
2021/09/18 16:53:15;;;;;;;1.80;0.35;;;;;;;13.46;59.72;99723.37;2212859;86;27488;-77
2021/09/18 16:56:36;;;;;;;2.58;0.50;;;;;;;13.38;59.88;99723.80;2245131;85;25638;-76
2021/09/18 16:59:57;;;;;;;0.95;0.65;;;;;;;13.31;59.99;99728.16;2251206;87;30931;-71
2021/09/18 17:03:18;;;;;;;0.50;0.50;;;;;;;13.20;60.07;99730.72;2252836;86;31424;-72
2021/09/18 17:06:39;;;;;;;1.15;0.60;;;;;;;13.15;60.21;99726.33;2222769;86;30920;-80
2021/09/18 17:10:37;;;;;;;1.25;0.50;;;;;;;13.10;60.36;99732.01;2231377;87;30939;-76
2021/09/18 17:14:04;;;;;;;0.67;0.40;;;;;;;13.01;60.43;99735.45;2240795;86;25796;-75
2021/09/18 17:17:34;;;;;;;1.77;0.70;;;;;;;12.90;60.58;99734.55;2237064;87;26525;-78
2021/09/18 17:21:00;;;;;;;0.57;0.50;;;;;;;12.90;60.58;99734.55;2229789;86;25711;-81
2021/09/18 17:24:21;;;;;;;0.90;0.60;;;;;;;12.84;60.75;99730.59;2162949;88;26603;-77
2021/09/18 17:27:54;;;;;;;1.22;0.50;;;;;;;12.84;60.75;99730.59;2183200;87;31185;-77
2021/09/18 17:34:55;;;;;;;0.95;0.68;;;;;;;12.81;61.27;99735.38;2062800;93;26582;-79
2021/09/18 17:38:49;;;;;;;0.93;0.70;;;;;;;12.84;61.41;99733.22;2067448;94;25814;-79
2021/09/18 17:42:46;;;;;;;1.65;0.68;;;;;;;12.89;61.60;99734.09;2064081;94;25834;-80
2021/09/18 17:46:13;;;;;;;1.45;0.72;;;;;;;12.96;61.82;99744.61;2099692;91;25763;-80
2021/09/18 17:49:43;;;;;;;1.67;0.80;;;;;;;12.94;61.72;99735.00;2098409;92;26312;-77
2021/09/18 17:53:22;;;;;;;1.20;0.70;;;;;;;12.93;61.58;99738.49;2105513;92;25871;-77
2021/09/18 17:56:59;;;;;;;1.40;0.90;;;;;;;12.95;61.45;99745.45;2105403;91;30948;-82
2021/09/18 18:00:35;;;;;;;2.15;1.12;;;;;;;12.94;61.59;99748.95;2089012;91;26339;-78
2021/09/18 18:04:18;;;;;;;0.95;0.82;;;;;;;12.98;61.55;99744.59;2140815;89;26778;-76
2021/09/18 18:07:55;;;;;;;1.70;0.80;;;;;;;12.96;61.59;99751.59;2183014;88;25734;-73
2021/09/18 18:11:25;;;;;;;1.37;0.93;;;;;;;12.97;61.66;99759.43;2189344;87;26120;-78
2021/09/18 18:14:47;;;;;;;5.05;0.72;;;;;;;12.93;61.81;99756.36;2221687;85;25766;-79
2021/09/18 18:18:11;;;;;;;1.85;0.93;;;;;;;12.97;61.68;99755.50;2222009;87;26227;-73
2021/09/18 18:25:10;;;;;;;;;;;;;;;12.87;61.88;99756.34;2169248;87;25979;-80
2021/09/18 18:28:31;;;;;;;1.00;0.88;;;;;;;12.84;61.82;99746.30;2192570;87;26077;-80
2021/09/18 18:31:52;;;;;;;1.60;0.95;;;;;;;12.81;61.89;99748.45;2208871;87;31304;-77
2021/09/18 18:35:13;;;;;;;2.35;1.10;;;;;;;12.81;61.96;99755.44;2203672;89;25813;-73
2021/09/18 18:38:34;;;;;;;1.95;0.80;;;;;;;12.82;61.90;99755.86;2175244;89;25787;-75
2021/09/18 18:41:56;;;;;;;0.90;0.80;;;;;;;12.82;62.01;99751.50;2168993;89;31491;-74
2021/09/18 18:45:16;;;;;;;1.37;0.82;;;;;;;12.82;62.07;99750.19;2190788;88;26348;-75
2021/09/18 18:48:37;;;;;;;0.68;0.68;;;;;;;12.82;62.00;99747.58;2185988;88;30944;-74
2021/09/18 18:51:59;;;;;;;1.62;0.85;;;;;;;12.79;62.00;99752.83;2184941;88;30976;-73
2021/09/18 19:02:27;;;;;;;1.25;0.70;;;;;;;13.76;65.44;99750.47;2197638;87;26214;-80
2021/09/18 19:05:50;;;;;;;3.25;1.25;;;;;;;14.27;63.78;99763.11;2230789;87;25960;-84
2021/09/18 19:09:11;;;;;;;1.60;1.20;;;;;;;14.32;62.71;99760.06;2245934;87;31237;-82
2021/09/18 19:12:32;;;;;;;2.92;1.70;;;;;;;14.30;62.18;99756.11;2239749;87;31209;-89
2021/09/18 19:15:57;;;;;;;1.80;1.37;;;;;;;14.29;61.60;99754.38;2238488;85;25734;-83
2021/09/18 19:19:34;;;;;;;2.25;1.50;;;;;;;14.16;60.83;99754.82;2231598;85;25794;-77
2021/09/18 19:26:46;;;;;;;4.20;1.35;;;;;;;14.17;60.68;99751.76;2157123;88;25716;-77
2021/09/18 19:30:15;;;;;;;2.58;1.70;;;;;;;14.17;60.68;99751.76;2168563;89;25703;-84
2021/09/18 19:33:55;;;;;;;2.50;1.90;;;;;;;14.13;60.52;99756.58;2186257;89;26129;-78
2021/09/18 19:37:17;;;;;;;1.90;1.40;;;;;;;14.12;60.41;99750.46;2124358;90;25721;-78
2021/09/18 19:44:18;;;;;;;1.60;1.30;;;;;;;14.09;60.14;99746.97;2096858;91;25978;-84
2021/09/18 19:47:39;;;;;;;2.92;1.50;;;;;;;14.04;60.07;99754.84;2100560;92;26110;-79
2021/09/18 19:51:00;;;;;;;1.30;1.20;;;;;;;14.02;60.00;99751.78;2096622;92;25769;-79
2021/09/18 19:54:22;;;;;;;1.67;1.57;;;;;;;14.02;60.00;99746.55;2086069;92;25843;-84
2021/09/18 19:57:48;;;;;;;4.55;2.10;;;;;;;14.00;59.86;99750.45;2084892;92;25856;-78
2021/09/18 20:01:18;;;;;;;1.65;1.30;;;;;;;13.96;59.99;99745.23;2092298;91;26972;-78
2021/09/18 20:04:39;;;;;;;2.65;1.82;;;;;;;13.90;59.92;99740.85;2110328;90;32458;-83
2021/09/18 20:08:01;;;;;;;1.80;1.57;;;;;;;13.86;59.98;99739.11;2110175;91;26421;-82
2021/09/18 20:11:25;;;;;;;2.00;1.50;;;;;;;13.84;59.95;99735.20;2109717;91;25831;-78
2021/09/18 20:14:46;;;;;;;5.40;1.50;;;;;;;13.83;59.96;99741.29;2117655;92;25321;-78
2021/09/18 20:18:08;;;;;;;1.95;1.65;;;;;;;13.87;59.99;99731.68;2100217;92;31031;-85
2021/09/18 20:21:33;;;;;;;1.70;1.55;;;;;;;13.89;59.93;99736.05;2231044;87;25632;-82
2021/09/18 20:24:57;;;;;;;1.35;1.22;;;;;;;13.88;60.10;99738.25;2228561;87;25716;-79
2021/09/18 20:28:36;;;;;;;2.15;1.45;;;;;;;14.04;60.68;99739.12;2219097;88;25654;-79
2021/09/18 20:32:02;;;;;;;7.40;1.67;;;;;;;14.28;61.14;99739.97;2197885;88;26196;-75
2021/09/18 20:35:22;;;;;;;5.90;1.65;;;;;;;14.49;61.34;99739.91;2228608;87;25661;-77
2021/09/18 20:38:43;;;;;;;3.40;1.92;;;;;;;14.62;61.20;99742.97;2240366;87;25623;-80
2021/09/18 20:42:05;;;;;;;3.98;3.55;;;;;;;14.58;60.68;99743.00;2251937;87;30892;-76
2021/09/18 20:45:26;;;;;;;2.47;2.12;;;;;;;14.50;60.34;99744.72;2238833;86;25881;-76
2021/09/18 20:48:48;;;;;;;2.33;2.12;;;;;;;14.41;60.20;99741.25;2242328;87;25895;-75
2021/09/18 20:52:10;;;;;;;3.42;2.45;;;;;;;14.30;60.08;99748.25;2229459;87;25803;-82
2021/09/18 20:55:32;;;;;;;2.80;2.27;;;;;;;14.22;59.95;99743.91;2235075;87;25723;-84
2021/09/18 20:58:53;;;;;;;2.98;2.67;;;;;;;14.15;59.93;99741.73;2238082;87;25839;-82
2021/09/18 21:05:39;;;;;;;3.37;2.83;;;;;;;14.02;59.96;99739.55;2238807;87;25666;-82
2021/09/18 21:09:01;;;;;;;3.42;2.40;;;;;;;13.99;59.98;99743.92;2245156;87;25762;-83
2021/09/18 21:12:22;;;;;;;3.08;2.58;;;;;;;13.97;59.97;99742.59;2253493;87;25675;-84
2021/09/18 21:15:43;;;;;;;3.05;2.77;;;;;;;13.89;59.95;99742.61;2249914;86;26296;-75
2021/09/18 21:19:04;;;;;;;2.27;1.72;;;;;;;13.89;60.02;99736.05;2241019;87;30928;-79